Bloomfield Hills, MI

7:35 PM EST on December 02, 2016 (GMT -0500)
Walnut Lake | | Change Station

Elev 957 ft 42.56 °N, 83.32 °W | Updated 11 seconds ago

Overcast
Overcast
36.1 °F
Feels Like 32 °F
N
5.0
Wind Variable Wind from WNW
Gusts 14.0 mph

Today
High -- | Low -- °F
--% Chance of Precip.
Yesterday
High -- | Low -- °F
Precip. -- in
Pressure 30.17 in
Visibility 10.0 miles
Clouds Overcast 2900 ft
Windchill 32 °F
Dew Point 30 °F
Humidity 77%
Rainfall 0.00 in
Snow Depth Not available.
7:45 AM 5:00 PM
Waxing Crescent, 11% visible
METAR KVLL 030014Z AUTO 28011G16KT 10SM OVC029 03/M03 A3017 RMK AO2 T00311032
Pressure 30.17 in
Visibility 10.0 miles
Clouds Overcast 2900 ft
Windchill 32 °F
Dew Point 30 °F
Humidity 77%
Rainfall 0.00 in
Snow Depth Not available.
7:45 AM 5:00 PM
Waxing Crescent, 11% visible
METAR KVLL 030014Z AUTO 28011G16KT 10SM OVC029 03/M03 A3017 RMK AO2 T00311032

10-Day Weather Forecast

Almanac

Astronomy

Dec. 02, 2016 Rise Set
Actual Time
Civil Twilight
Nautical Twilight
Astronomical Twilight
Moon
Length of Visible Light
Length of Day
Tomorrow will be .
, % of the Moon is Illuminated

Today's Extremes

State Highs State Lows

Community

WunderPhotos

Upload Photos

1,955,381 photos uploaded!

WunderBlog® & News

Nearby

Air Quality

  Air Quality AQ Index Pollutant
Not available.

Snow Depth

Station Depth Elevation

Earthquake Activity

City Distance Mag. Time & Date
Minimum magnitude displayed is 2.5.

Coastal Water Temperatures

Place Temperature

Stations

Nearby Weather Stations

Station Location Temp. Windchill Dew Point Humidity Wind Precip. Elev Updated Type
                   

Watches & Warnings

There are currently no watches in effect.